Time,TemperatureF,DewpointF,PressureIn,WindDirection,WindDirectionDegrees,WindSpeedMPH,WindSpeedGustMPH,Humidity,HourlyPrecipIn,Conditions,Clouds,dailyrainin,SoftwareType,DateUTC
2013-02-17 00:00:00,30.9,27.5,29.70,NNW,332,19.0,21.0,87,0.00,,,0.02,meteohub,2013-02-17 05:00:00,
2013-02-17 00:06:00,30.9,27.5,29.70,NW,319,14.0,21.0,87,0.00,,,0.02,meteohub,2013-02-17 05:06:00,
2013-02-17 00:11:00,30.9,27.5,29.70,NW,324,7.0,21.0,87,0.00,,,0.02,meteohub,2013-02-17 05:11:00,
2013-02-17 00:16:00,30.9,27.1,29.69,NW,311,9.0,21.0,86,0.00,,,0.00,meteohub,2013-02-17 05:16:00,
2013-02-17 00:21:00,30.9,27.1,29.70,NW,311,7.0,21.0,86,0.00,,,0.00,meteohub,2013-02-17 05:21:00,
2013-02-17 00:26:00,30.9,27.5,29.71,North,0,12.0,21.0,87,0.00,,,0.00,meteohub,2013-02-17 05:26:00,
2013-02-17 00:31:00,30.7,27.3,29.70,NW,318,8.0,21.0,87,0.00,,,0.00,meteohub,2013-02-17 05:31:00,
2013-02-17 00:36:00,30.7,27.3,29.71,NNW,342,8.0,21.0,87,0.00,,,0.00,meteohub,2013-02-17 05:36:00,
2013-02-17 00:41:00,30.7,27.7,29.71,NNW,333,16.0,16.0,88,0.00,,,0.00,meteohub,2013-02-17 05:41:00,
2013-02-17 00:46:00,30.7,27.3,29.70,WNW,293,12.0,15.0,87,0.00,,,0.00,meteohub,2013-02-17 05:46:00,
2013-02-17 00:51:00,30.7,27.3,29.69,NW,316,13.0,15.0,87,0.00,,,0.00,meteohub,2013-02-17 05:51:00,
2013-02-17 00:56:00,30.6,27.1,29.68,NW,323,6.0,15.0,87,0.00,,,0.00,meteohub,2013-02-17 05:56:00,
2013-02-17 01:01:00,30.6,27.1,29.68,NNW,333,14.0,17.0,87,0.00,,,0.00,meteohub,2013-02-17 06:01:00,
2013-02-17 01:06:00,30.4,26.8,29.68,NW,305,12.0,17.0,86,0.00,,,0.00,meteohub,2013-02-17 06:06:00,
2013-02-17 01:11:00,30.0,26.4,29.67,NNW,339,10.0,17.0,86,0.00,,,0.00,meteohub,2013-02-17 06:11:00,
2013-02-17 01:16:00,30.0,26.6,29.67,NW,321,8.0,17.0,87,0.00,,,0.00,meteohub,2013-02-17 06:16:00,
2013-02-17 01:21:00,30.0,26.6,29.67,NW,323,16.0,23.0,87,0.00,,,0.00,meteohub,2013-02-17 06:21:00,
2013-02-17 01:26:00,29.8,26.4,29.66,NW,320,10.0,23.0,87,0.00,,,0.00,meteohub,2013-02-17 06:26:00,
2013-02-17 01:31:00,29.7,26.2,29.66,North,355,9.0,24.0,87,0.00,,,0.00,meteohub,2013-02-17 06:31:00,
2013-02-17 01:36:00,29.7,26.6,29.67,WNW,297,5.0,24.0,88,0.00,,,0.00,meteohub,2013-02-17 06:36:00,
2013-02-17 01:41:00,29.7,26.8,29.67,WNW,299,6.0,23.0,89,0.00,,,0.00,meteohub,2013-02-17 06:41:00,
2013-02-17 01:46:00,29.5,26.6,29.67,NW,305,10.0,23.0,89,0.00,,,0.00,meteohub,2013-02-17 06:46:00,
2013-02-17 01:51:00,29.1,26.6,29.67,WNW,300,20.0,22.0,90,0.00,,,0.00,meteohub,2013-02-17 06:51:00,
2013-02-17 01:56:00,28.9,26.4,29.67,NNW,329,7.0,22.0,90,0.00,,,0.00,meteohub,2013-02-17 06:56:00,
2013-02-17 02:01:00,28.9,26.6,29.67,NNW,336,17.0,22.0,91,0.00,,,0.00,meteohub,2013-02-17 07:01:00,
2013-02-17 02:06:00,28.8,26.4,29.67,NW,325,20.0,22.0,91,0.00,,,0.00,meteohub,2013-02-17 07:06:00,
2013-02-17 02:11:00,28.6,26.2,29.67,NW,323,8.0,22.0,91,0.00,,,0.00,meteohub,2013-02-17 07:11:00,
2013-02-17 02:16:00,28.2,25.7,29.67,WNW,301,14.0,22.0,90,0.00,,,0.00,meteohub,2013-02-17 07:16:00,
2013-02-17 02:21:00,28.2,25.7,29.67,NW,311,11.0,25.0,90,0.00,,,0.00,meteohub,2013-02-17 07:21:00,
2013-02-17 02:26:00,27.9,25.3,29.66,NW,316,11.0,25.0,90,0.00,,,0.00,meteohub,2013-02-17 07:26:00,
2013-02-17 02:31:00,27.7,25.2,29.66,WNW,300,16.0,29.0,90,0.00,,,0.00,meteohub,2013-02-17 07:31:00,
2013-02-17 02:36:00,27.3,24.8,29.67,WNW,297,16.0,29.0,90,0.00,,,0.00,meteohub,2013-02-17 07:36:00,
2013-02-17 02:41:00,27.1,24.8,29.66,WNW,296,15.0,30.0,91,0.00,,,0.00,meteohub,2013-02-17 07:41:00,
2013-02-17 02:46:00,27.0,24.6,29.66,NNW,327,17.0,30.0,91,0.00,,,0.00,meteohub,2013-02-17 07:46:00,
2013-02-17 02:51:00,26.6,24.3,29.66,NW,309,9.0,26.0,91,0.00,,,0.00,meteohub,2013-02-17 07:51:00,
2013-02-17 02:56:00,26.4,24.1,29.66,WNW,302,15.0,26.0,91,0.00,,,0.00,meteohub,2013-02-17 07:56:00,
2013-02-17 03:01:00,26.2,24.3,29.65,WNW,300,14.0,30.0,92,0.00,,,0.00,meteohub,2013-02-17 08:01:00,
2013-02-17 03:06:00,26.1,24.1,29.65,WNW,299,11.0,30.0,92,0.00,,,0.00,meteohub,2013-02-17 08:06:00,
2013-02-17 03:11:00,26.1,24.1,29.65,WNW,286,19.0,30.0,92,0.00,,,0.00,meteohub,2013-02-17 08:11:00,
2013-02-17 03:16:00,26.1,24.1,29.64,NW,313,17.0,30.0,92,0.00,,,0.00,meteohub,2013-02-17 08:16:00,
2013-02-17 03:21:00,26.1,24.1,29.63,North,355,13.0,32.0,92,0.00,,,0.00,meteohub,2013-02-17 08:21:00,
2013-02-17 03:26:00,26.1,24.1,29.63,WNW,298,13.0,32.0,92,0.00,,,0.00,meteohub,2013-02-17 08:26:00,
2013-02-17 03:31:00,26.1,23.7,29.64,NW,305,18.0,27.0,91,0.00,,,0.00,meteohub,2013-02-17 08:31:00,
2013-02-17 03:36:00,26.2,23.9,29.64,NW,316,10.0,27.0,91,0.00,,,0.00,meteohub,2013-02-17 08:36:00,
2013-02-17 03:41:00,26.4,23.9,29.65,NW,311,19.0,28.0,90,0.00,,,0.00,meteohub,2013-02-17 08:41:00,
2013-02-17 03:46:00,26.4,23.9,29.64,NW,325,17.0,28.0,90,0.00,,,0.00,meteohub,2013-02-17 08:46:00,
2013-02-17 03:51:00,26.6,23.7,29.63,NNW,329,10.0,26.0,89,0.00,,,0.00,meteohub,2013-02-17 08:51:00,
2013-02-17 03:56:00,26.8,23.7,29.63,NW,304,8.0,26.0,88,0.00,,,0.00,meteohub,2013-02-17 08:56:00,
2013-02-17 04:01:00,27.0,23.5,29.64,NW,309,15.0,26.0,87,0.00,,,0.00,meteohub,2013-02-17 09:01:00,
2013-02-17 04:07:00,27.0,23.4,29.63,WNW,302,20.0,26.0,86,0.00,,,0.00,meteohub,2013-02-17 09:07:00,
2013-02-17 04:12:00,27.1,23.2,29.63,WNW,302,20.0,29.0,85,0.00,,,0.00,meteohub,2013-02-17 09:12:00,
2013-02-17 04:17:00,27.1,23.0,29.62,NW,326,14.0,29.0,84,0.00,,,0.00,meteohub,2013-02-17 09:17:00,
2013-02-17 04:22:00,27.3,22.8,29.62,NNW,344,11.0,27.0,83,0.00,,,0.00,meteohub,2013-02-17 09:22:00,
2013-02-17 04:27:00,27.5,22.8,29.63,NW,313,9.0,27.0,82,0.00,,,0.00,meteohub,2013-02-17 09:27:00,
2013-02-17 04:32:00,27.5,22.5,29.63,NW,316,13.0,27.0,81,0.00,,,0.00,meteohub,2013-02-17 09:32:00,
2013-02-17 04:37:00,27.7,22.3,29.63,NW,324,9.0,27.0,80,0.00,,,0.00,meteohub,2013-02-17 09:37:00,
2013-02-17 04:42:00,27.7,22.1,29.63,NNW,338,15.0,27.0,79,0.00,,,0.00,meteohub,2013-02-17 09:42:00,
2013-02-17 04:47:00,27.9,21.6,29.63,WNW,286,8.0,27.0,77,0.00,,,0.00,meteohub,2013-02-17 09:47:00,
2013-02-17 04:52:00,27.9,21.2,29.63,WNW,301,5.0,28.0,76,0.00,,,0.00,meteohub,2013-02-17 09:52:00,
2013-02-17 04:57:00,28.0,20.8,29.62,NW,305,9.0,28.0,74,0.00,,,0.00,meteohub,2013-02-17 09:57:00,
2013-02-17 05:02:00,27.9,21.2,29.61,WNW,287,11.0,28.0,76,0.00,,,0.00,meteohub,2013-02-17 10:02:00,
2013-02-17 05:07:00,27.9,21.2,29.60,WNW,302,13.0,28.0,76,0.00,,,0.00,meteohub,2013-02-17 10:07:00,
2013-02-17 05:12:00,27.7,21.0,29.60,WNW,284,19.0,28.0,76,0.00,,,0.00,meteohub,2013-02-17 10:12:00,
2013-02-17 05:17:00,27.7,21.0,29.60,WNW,292,21.0,28.0,76,0.00,,,0.00,meteohub,2013-02-17 10:17:00,
2013-02-17 05:22:00,27.7,20.8,29.60,NW,323,9.0,28.0,75,0.00,,,0.00,meteohub,2013-02-17 10:22:00,
2013-02-17 05:27:00,27.7,20.8,29.60,NNW,331,11.0,28.0,75,0.00,,,0.00,meteohub,2013-02-17 10:27:00,
2013-02-17 05:32:00,27.7,20.8,29.62,NNW,344,13.0,28.0,75,0.00,,,0.00,meteohub,2013-02-17 10:32:00,
2013-02-17 05:37:00,27.7,20.5,29.62,NW,315,17.0,25.0,74,0.00,,,0.00,meteohub,2013-02-17 10:37:00,
2013-02-17 05:42:00,27.9,19.9,29.62,NW,313,14.0,25.0,72,0.00,,,0.00,meteohub,2013-02-17 10:42:00,
2013-02-17 05:47:00,27.9,19.8,29.62,WNW,300,10.0,25.0,71,0.00,,,0.00,meteohub,2013-02-17 10:47:00,
2013-02-17 05:52:00,28.0,19.2,29.60,WNW,294,8.0,25.0,69,0.00,,,0.00,meteohub,2013-02-17 10:52:00,
2013-02-17 05:57:00,28.0,18.9,29.60,NW,320,14.0,25.0,68,0.00,,,0.00,meteohub,2013-02-17 10:57:00,
2013-02-17 06:02:00,28.2,18.3,29.60,WNW,292,15.0,24.0,66,0.00,,,0.00,meteohub,2013-02-17 11:02:00,
2013-02-17 06:07:00,28.4,17.8,29.59,WNW,302,14.0,24.0,64,0.00,,,0.00,meteohub,2013-02-17 11:07:00,
2013-02-17 06:12:00,28.6,17.2,29.59,WNW,299,9.0,24.0,62,0.00,,,0.00,meteohub,2013-02-17 11:12:00,
2013-02-17 06:17:00,28.6,16.2,29.59,NW,310,16.0,24.0,59,0.00,,,0.00,meteohub,2013-02-17 11:17:00,
2013-02-17 06:22:00,28.6,15.3,29.59,WNW,284,11.0,24.0,57,0.00,,,0.00,meteohub,2013-02-17 11:22:00,
2013-02-17 06:27:00,28.4,14.4,29.59,WNW,302,7.0,25.0,55,0.00,,,0.00,meteohub,2013-02-17 11:27:00,
2013-02-17 06:32:00,28.2,14.2,29.59,WNW,285,5.0,25.0,55,0.00,,,0.00,meteohub,2013-02-17 11:32:00,
2013-02-17 06:37:00,28.0,13.5,29.59,WNW,283,9.0,25.0,54,0.00,,,0.00,meteohub,2013-02-17 11:37:00,
2013-02-17 06:42:00,27.9,13.5,29.59,West,262,12.0,25.0,54,0.00,,,0.00,meteohub,2013-02-17 11:42:00,
2013-02-17 06:47:00,27.7,12.7,29.59,WNW,289,21.0,25.0,53,0.00,,,0.00,meteohub,2013-02-17 11:47:00,
2013-02-17 06:52:00,27.7,13.3,29.60,WNW,292,13.0,26.0,54,0.00,,,0.00,meteohub,2013-02-17 11:52:00,
2013-02-17 06:57:00,27.5,13.1,29.60,West,277,16.0,26.0,54,0.00,,,0.00,meteohub,2013-02-17 11:57:00,
2013-02-17 07:02:00,27.3,12.0,29.60,WNW,284,19.0,26.0,52,0.00,,,0.00,meteohub,2013-02-17 12:02:00,
2013-02-17 07:07:00,27.1,11.8,29.60,WNW,297,18.0,26.0,52,0.00,,,0.00,meteohub,2013-02-17 12:07:00,
2013-02-17 07:12:00,27.1,11.8,29.60,WNW,283,14.0,26.0,52,0.00,,,0.00,meteohub,2013-02-17 12:12:00,
2013-02-17 07:17:00,27.0,12.0,29.61,West,279,12.0,28.0,53,0.00,,,0.00,meteohub,2013-02-17 12:17:00,
2013-02-17 07:22:00,27.0,12.0,29.61,WNW,296,9.0,28.0,53,0.00,,,0.00,meteohub,2013-02-17 12:22:00,
2013-02-17 07:27:00,26.8,12.4,29.61,West,267,13.0,28.0,54,0.00,,,0.00,meteohub,2013-02-17 12:27:00,
2013-02-17 07:32:00,26.8,12.0,29.61,West,268,10.0,28.0,53,0.00,,,0.00,meteohub,2013-02-17 12:32:00,
2013-02-17 07:37:00,26.6,11.8,29.61,WNW,286,22.0,28.0,53,0.00,,,0.00,meteohub,2013-02-17 12:37:00,
2013-02-17 07:42:00,26.4,11.1,29.60,WNW,295,13.0,27.0,52,0.00,,,0.00,meteohub,2013-02-17 12:42:00,
2013-02-17 07:47:00,26.4,11.7,29.60,West,274,14.0,27.0,53,0.00,,,0.00,meteohub,2013-02-17 12:47:00,
2013-02-17 07:52:00,26.4,11.7,29.60,WNW,293,24.0,27.0,53,0.00,,,0.00,meteohub,2013-02-17 12:52:00,
2013-02-17 07:57:00,26.2,10.2,29.60,West,277,16.0,27.0,50,0.00,,,0.00,meteohub,2013-02-17 12:57:00,
2013-02-17 08:02:00,26.2,10.6,29.58,West,279,14.0,27.0,51,0.00,,,0.00,meteohub,2013-02-17 13:02:00,
2013-02-17 08:07:00,26.2,10.6,29.58,West,281,7.0,27.0,51,0.00,,,0.00,meteohub,2013-02-17 13:07:00,
2013-02-17 08:12:00,26.2,10.6,29.59,WNW,294,11.0,30.0,51,0.00,,,0.00,meteohub,2013-02-17 13:12:00,
2013-02-17 08:17:00,26.2,10.6,29.59,West,268,14.0,30.0,51,0.00,,,0.00,meteohub,2013-02-17 13:17:00,
2013-02-17 08:22:00,26.2,10.6,29.59,West,277,15.0,30.0,51,0.00,,,0.00,meteohub,2013-02-17 13:22:00,
2013-02-17 08:27:00,26.2,10.2,29.60,WNW,301,14.0,30.0,50,0.00,,,0.00,meteohub,2013-02-17 13:27:00,
2013-02-17 08:32:00,26.2,9.7,29.60,West,281,9.0,30.0,49,0.00,,,0.00,meteohub,2013-02-17 13:32:00,
2013-02-17 08:37:00,26.1,10.4,29.60,West,277,21.0,35.0,51,0.00,,,0.00,meteohub,2013-02-17 13:37:00,
2013-02-17 08:42:00,26.1,11.3,29.60,West,271,7.0,35.0,53,0.00,,,0.00,meteohub,2013-02-17 13:42:00,
2013-02-17 08:47:00,26.1,10.8,29.60,WNW,282,20.0,35.0,52,0.00,,,0.00,meteohub,2013-02-17 13:47:00,
2013-02-17 08:52:00,25.9,10.8,29.60,WNW,290,11.0,35.0,52,0.00,,,0.00,meteohub,2013-02-17 13:52:00,
2013-02-17 08:57:00,26.1,10.8,29.60,WNW,283,10.0,31.0,52,0.00,,,0.00,meteohub,2013-02-17 13:57:00,
2013-02-17 09:02:00,26.1,11.3,29.60,WNW,287,18.0,31.0,53,0.00,,,0.00,meteohub,2013-02-17 14:02:00,
2013-02-17 09:07:00,26.1,10.8,29.60,WSW,253,16.0,31.0,52,0.00,,,0.00,meteohub,2013-02-17 14:07:00,
2013-02-17 09:12:00,26.1,11.3,29.60,WNW,287,21.0,31.0,53,0.00,,,0.00,meteohub,2013-02-17 14:12:00,
2013-02-17 09:18:00,26.1,11.3,29.60,WNW,282,13.0,25.0,53,0.00,,,0.00,meteohub,2013-02-17 14:18:00,
2013-02-17 09:23:00,26.1,11.3,29.60,WNW,300,13.0,25.0,53,0.00,,,0.00,meteohub,2013-02-17 14:23:00,
2013-02-17 09:28:00,25.9,11.1,29.60,West,261,12.0,25.0,53,0.00,,,0.00,meteohub,2013-02-17 14:28:00,
2013-02-17 09:33:00,25.9,11.1,29.60,WNW,287,10.0,25.0,53,0.00,,,0.00,meteohub,2013-02-17 14:33:00,
2013-02-17 09:38:00,25.9,11.1,29.60,WNW,300,10.0,25.0,53,0.00,,,0.00,meteohub,2013-02-17 14:38:00,
2013-02-17 09:43:00,25.9,10.8,29.60,WNW,302,14.0,29.0,52,0.00,,,0.00,meteohub,2013-02-17 14:43:00,
2013-02-17 09:48:00,25.9,10.2,29.60,West,279,13.0,29.0,51,0.00,,,0.00,meteohub,2013-02-17 14:48:00,
2013-02-17 09:53:00,26.1,10.8,29.60,WNW,284,7.0,29.0,52,0.00,,,0.00,meteohub,2013-02-17 14:53:00,
2013-02-17 09:58:00,26.1,10.4,29.60,WNW,283,19.0,29.0,51,0.00,,,0.00,meteohub,2013-02-17 14:58:00,
2013-02-17 10:03:00,26.1,10.0,29.60,West,270,17.0,32.0,50,0.00,,,0.00,meteohub,2013-02-17 15:03:00,
2013-02-17 10:08:00,26.1,10.4,29.60,WNW,290,12.0,32.0,51,0.00,,,0.00,meteohub,2013-02-17 15:08:00,
2013-02-17 10:13:00,26.2,9.7,29.60,West,279,19.0,32.0,49,0.00,,,0.00,meteohub,2013-02-17 15:13:00,
2013-02-17 10:18:00,26.2,9.7,29.60,WNW,286,17.0,32.0,49,0.00,,,0.00,meteohub,2013-02-17 15:18:00,
2013-02-17 10:23:00,26.4,9.9,29.60,West,269,18.0,32.0,49,0.00,,,0.00,meteohub,2013-02-17 15:23:00,
2013-02-17 10:28:00,26.4,9.0,29.60,WNW,290,16.0,30.0,47,0.00,,,0.00,meteohub,2013-02-17 15:28:00,
2013-02-17 10:33:00,26.8,9.3,29.60,West,278,13.0,30.0,47,0.00,,,0.00,meteohub,2013-02-17 15:33:00,
2013-02-17 10:38:00,27.0,9.5,29.60,NW,316,21.0,30.0,47,0.00,,,0.00,meteohub,2013-02-17 15:38:00,
2013-02-17 10:43:00,27.1,10.0,29.60,WNW,300,19.0,30.0,48,0.00,,,0.00,meteohub,2013-02-17 15:43:00,
2013-02-17 10:48:00,27.3,9.3,29.61,West,281,17.0,32.0,46,0.00,,,0.00,meteohub,2013-02-17 15:48:00,
2013-02-17 10:53:00,27.1,9.1,29.61,West,267,17.0,32.0,46,0.00,,,0.00,meteohub,2013-02-17 15:53:00,
2013-02-17 10:58:00,27.1,8.1,29.61,WNW,295,23.0,32.0,44,0.00,,,0.00,meteohub,2013-02-17 15:58:00,
2013-02-17 11:03:00,27.5,8.4,29.60,West,278,22.0,32.0,44,0.00,,,0.00,meteohub,2013-02-17 16:03:00,
2013-02-17 11:08:00,27.7,8.1,29.60,WNW,289,24.0,32.0,43,0.00,,,0.00,meteohub,2013-02-17 16:08:00,
2013-02-17 11:13:00,27.9,8.2,29.60,WNW,288,21.0,33.0,43,0.00,,,0.00,meteohub,2013-02-17 16:13:00,
2013-02-17 11:18:00,28.0,8.4,29.60,NNW,338,12.0,33.0,43,0.00,,,0.00,meteohub,2013-02-17 16:18:00,
2013-02-17 11:23:00,28.2,8.6,29.60,West,273,15.0,33.0,43,0.00,,,0.00,meteohub,2013-02-17 16:23:00,
2013-02-17 11:28:00,28.2,9.1,29.61,West,274,14.0,33.0,44,0.00,,,0.00,meteohub,2013-02-17 16:28:00,
2013-02-17 11:33:00,28.6,8.4,29.61,WNW,284,20.0,30.0,42,0.00,,,0.00,meteohub,2013-02-17 16:33:00,
2013-02-17 11:38:00,28.6,7.9,29.61,WNW,292,27.0,30.0,41,0.00,,,0.00,meteohub,2013-02-17 16:38:00,
2013-02-17 11:43:00,28.6,7.9,29.60,SW,232,21.0,30.0,41,0.00,,,0.00,meteohub,2013-02-17 16:43:00,
2013-02-17 11:48:00,28.8,8.6,29.61,West,270,20.0,30.0,42,0.00,,,0.00,meteohub,2013-02-17 16:48:00,
2013-02-17 11:53:00,28.9,8.2,29.61,WNW,286,28.0,35.0,41,0.00,,,0.00,meteohub,2013-02-17 16:53:00,
2013-02-17 11:58:00,28.8,7.0,29.61,West,274,24.0,35.0,39,0.00,,,0.00,meteohub,2013-02-17 16:58:00,
2013-02-17 12:03:00,28.8,7.0,29.60,West,271,27.0,35.0,39,0.00,,,0.00,meteohub,2013-02-17 17:03:00,
2013-02-17 12:08:00,28.9,7.2,29.61,WNW,293,7.0,35.0,39,0.00,,,0.00,meteohub,2013-02-17 17:08:00,
2013-02-17 12:13:00,29.1,7.2,29.61,West,259,16.0,35.0,39,0.00,,,0.00,meteohub,2013-02-17 17:13:00,
2013-02-17 12:18:00,29.3,6.8,29.61,West,270,25.0,39.0,38,0.00,,,0.00,meteohub,2013-02-17 17:18:00,
2013-02-17 12:23:00,29.7,7.2,29.61,West,271,17.0,39.0,38,0.00,,,0.00,meteohub,2013-02-17 17:23:00,
2013-02-17 12:28:00,29.7,5.9,29.61,West,279,16.0,39.0,36,0.00,,,0.00,meteohub,2013-02-17 17:28:00,
2013-02-17 12:33:00,29.7,5.9,29.61,WNW,286,26.0,39.0,36,0.00,,,0.00,meteohub,2013-02-17 17:33:00,
2013-02-17 12:38:00,29.7,6.6,29.61,WSW,258,17.0,39.0,37,0.00,,,0.00,meteohub,2013-02-17 17:38:00,
2013-02-17 12:43:00,29.8,6.8,29.62,West,281,35.0,40.0,37,0.00,,,0.00,meteohub,2013-02-17 17:43:00,
2013-02-17 12:49:00,29.8,7.3,29.62,West,280,11.0,40.0,38,0.00,,,0.00,meteohub,2013-02-17 17:49:00,
2013-02-17 12:54:00,30.0,6.3,29.62,West,279,20.0,40.0,36,0.00,,,0.00,meteohub,2013-02-17 17:54:00,
2013-02-17 12:59:00,30.0,5.7,29.62,WSW,255,19.0,40.0,35,0.00,,,0.00,meteohub,2013-02-17 17:59:00,
2013-02-17 13:04:00,30.4,6.1,29.62,NW,309,37.0,40.0,35,0.00,,,0.00,meteohub,2013-02-17 18:04:00,
2013-02-17 13:09:00,30.6,6.1,29.64,West,278,26.0,40.0,35,0.00,,,0.00,meteohub,2013-02-17 18:09:00,
2013-02-17 13:14:00,30.6,6.1,29.63,WNW,284,14.0,39.0,35,0.00,,,0.00,meteohub,2013-02-17 18:14:00,
2013-02-17 13:19:00,30.7,5.7,29.63,West,265,17.0,39.0,34,0.00,,,0.00,meteohub,2013-02-17 18:19:00,
2013-02-17 13:24:00,30.9,7.2,29.63,West,267,14.0,39.0,36,0.00,,,0.00,meteohub,2013-02-17 18:24:00,
2013-02-17 13:29:00,31.5,7.5,29.63,WNW,294,18.0,39.0,36,0.00,,,0.00,meteohub,2013-02-17 18:29:00,
2013-02-17 13:34:00,31.5,6.3,29.63,West,273,20.0,39.0,34,0.00,,,0.00,meteohub,2013-02-17 18:34:00,
2013-02-17 13:39:00,31.3,6.1,29.63,West,266,19.0,34.0,34,0.00,,,0.00,meteohub,2013-02-17 18:39:00,
2013-02-17 13:44:00,31.5,6.3,29.63,WNW,301,16.0,34.0,34,0.00,,,0.00,meteohub,2013-02-17 18:44:00,
2013-02-17 13:49:00,31.6,7.7,29.63,WSW,254,11.0,34.0,36,0.00,,,0.00,meteohub,2013-02-17 18:49:00,
2013-02-17 13:54:00,31.5,6.3,29.63,West,271,20.0,34.0,34,0.00,,,0.00,meteohub,2013-02-17 18:54:00,
2013-02-17 13:59:00,31.5,6.3,29.64,West,265,9.0,34.0,34,0.00,,,0.00,meteohub,2013-02-17 18:59:00,
2013-02-17 14:04:00,31.5,6.3,29.64,WNW,301,17.0,32.0,34,0.00,,,0.00,meteohub,2013-02-17 19:04:00,
2013-02-17 14:09:00,31.5,5.0,29.63,West,259,17.0,32.0,32,0.00,,,0.00,meteohub,2013-02-17 19:09:00,
2013-02-17 14:14:00,31.5,5.0,29.64,WNW,298,27.0,32.0,32,0.00,,,0.00,meteohub,2013-02-17 19:14:00,
2013-02-17 14:19:00,31.6,4.5,29.64,WNW,282,10.0,32.0,31,0.00,,,0.00,meteohub,2013-02-17 19:19:00,
2013-02-17 14:24:00,31.6,4.5,29.64,WNW,287,14.0,32.0,31,0.00,,,0.00,meteohub,2013-02-17 19:24:00,
2013-02-17 14:29:00,32.2,5.5,29.65,WNW,283,25.0,33.0,32,0.00,,,0.00,meteohub,2013-02-17 19:29:00,
2013-02-17 14:34:00,32.0,5.5,29.65,West,273,18.0,33.0,32,0.00,,,0.00,meteohub,2013-02-17 19:34:00,
2013-02-17 14:39:00,32.4,5.0,29.64,NW,325,13.0,33.0,31,0.00,,,0.00,meteohub,2013-02-17 19:39:00,
2013-02-17 14:44:00,32.2,5.0,29.65,West,266,21.0,33.0,31,0.00,,,0.00,meteohub,2013-02-17 19:44:00,
2013-02-17 14:49:00,32.2,5.0,29.65,West,277,18.0,33.0,31,0.00,,,0.00,meteohub,2013-02-17 19:49:00,
2013-02-17 14:54:00,32.2,5.0,29.65,WNW,283,21.0,33.0,31,0.00,,,0.00,meteohub,2013-02-17 19:54:00,
2013-02-17 14:59:00,32.0,4.8,29.65,West,265,16.0,33.0,31,0.00,,,0.00,meteohub,2013-02-17 19:59:00,
2013-02-17 15:04:00,31.8,4.6,29.66,WNW,282,21.0,33.0,31,0.00,,,0.00,meteohub,2013-02-17 20:04:00,
2013-02-17 15:09:00,31.8,4.6,29.66,West,274,19.0,31.0,31,0.00,,,0.00,meteohub,2013-02-17 20:09:00,
2013-02-17 15:14:00,31.5,5.0,29.66,WNW,289,13.0,31.0,32,0.00,,,0.00,meteohub,2013-02-17 20:14:00,
2013-02-17 15:19:00,31.6,5.9,29.66,West,276,15.0,31.0,33,0.00,,,0.00,meteohub,2013-02-17 20:19:00,
2013-02-17 15:24:00,31.6,7.2,29.66,West,273,19.0,31.0,35,0.00,,,0.00,meteohub,2013-02-17 20:24:00,
2013-02-17 15:29:00,31.5,7.0,29.67,West,269,8.0,34.0,35,0.00,,,0.00,meteohub,2013-02-17 20:29:00,
2013-02-17 15:34:00,31.5,7.0,29.67,WSW,251,16.0,34.0,35,0.00,,,0.00,meteohub,2013-02-17 20:34:00,
2013-02-17 15:39:00,31.3,6.8,29.67,West,269,25.0,34.0,35,0.00,,,0.00,meteohub,2013-02-17 20:39:00,
2013-02-17 15:44:00,31.5,7.5,29.67,WSW,245,10.0,34.0,36,0.00,,,0.00,meteohub,2013-02-17 20:44:00,
2013-02-17 15:49:00,31.6,6.4,29.67,West,273,17.0,31.0,34,0.00,,,0.00,meteohub,2013-02-17 20:49:00,
2013-02-17 15:54:00,31.5,7.0,29.67,West,279,18.0,31.0,35,0.00,,,0.00,meteohub,2013-02-17 20:54:00,
2013-02-17 15:59:00,31.6,7.2,29.68,NW,308,25.0,31.0,35,0.00,,,0.00,meteohub,2013-02-17 20:59:00,
2013-02-17 16:05:00,31.5,7.0,29.68,West,272,26.0,31.0,35,0.00,,,0.00,meteohub,2013-02-17 21:05:00,
2013-02-17 16:10:00,31.5,6.3,29.68,SW,234,13.0,30.0,34,0.00,,,0.00,meteohub,2013-02-17 21:10:00,
2013-02-17 16:15:00,31.1,6.1,29.68,West,263,24.0,30.0,34,0.00,,,0.00,meteohub,2013-02-17 21:15:00,
2013-02-17 16:20:00,31.1,5.4,29.68,West,269,20.0,30.0,33,0.00,,,0.00,meteohub,2013-02-17 21:20:00,
2013-02-17 16:25:00,30.7,5.0,29.68,WNW,288,34.0,34.0,33,0.00,,,0.00,meteohub,2013-02-17 21:25:00,
2013-02-17 16:30:00,30.7,5.0,29.68,West,266,19.0,30.0,33,0.00,,,0.00,meteohub,2013-02-17 21:30:00,
2013-02-17 16:35:00,30.6,4.8,29.69,WSW,248,12.0,38.0,33,0.00,,,0.00,meteohub,2013-02-17 21:35:00,
2013-02-17 16:40:00,30.6,4.8,29.69,West,262,27.0,38.0,33,0.00,,,0.00,meteohub,2013-02-17 21:40:00,
2013-02-17 16:45:00,30.4,4.6,29.70,West,274,21.0,38.0,33,0.00,,,0.00,meteohub,2013-02-17 21:45:00,
2013-02-17 16:50:00,30.2,4.5,29.70,West,269,19.0,38.0,33,0.00,,,0.00,meteohub,2013-02-17 21:50:00,
2013-02-17 16:55:00,30.0,5.0,29.71,West,278,21.0,34.0,34,0.00,,,0.00,meteohub,2013-02-17 21:55:00,
2013-02-17 17:00:00,30.0,5.7,29.71,West,276,20.0,34.0,35,0.00,,,0.00,meteohub,2013-02-17 22:00:00,
2013-02-17 17:05:00,29.8,5.5,29.72,WSW,258,16.0,34.0,35,0.00,,,0.00,meteohub,2013-02-17 22:05:00,
2013-02-17 17:10:00,29.7,4.6,29.72,West,275,27.0,34.0,34,0.00,,,0.00,meteohub,2013-02-17 22:10:00,
2013-02-17 17:15:00,29.5,5.2,29.72,West,263,23.0,30.0,35,0.00,,,0.00,meteohub,2013-02-17 22:15:00,
2013-02-17 17:20:00,29.1,6.1,29.73,WSW,257,17.0,30.0,37,0.00,,,0.00,meteohub,2013-02-17 22:20:00,
2013-02-17 17:25:00,28.9,5.4,29.73,West,281,28.0,30.0,36,0.00,,,0.00,meteohub,2013-02-17 22:25:00,
2013-02-17 17:30:00,28.9,5.9,29.73,West,263,14.0,30.0,37,0.00,,,0.00,meteohub,2013-02-17 22:30:00,
2013-02-17 17:35:00,28.8,5.2,29.74,WSW,256,21.0,30.0,36,0.00,,,0.00,meteohub,2013-02-17 22:35:00,
2013-02-17 17:40:00,28.6,5.0,29.74,West,271,23.0,30.0,36,0.00,,,0.00,meteohub,2013-02-17 22:40:00,
2013-02-17 17:45:00,28.4,5.4,29.75,WSW,250,18.0,30.0,37,0.00,,,0.00,meteohub,2013-02-17 22:45:00,
2013-02-17 17:50:00,28.2,5.4,29.75,West,259,16.0,30.0,37,0.00,,,0.00,meteohub,2013-02-17 22:50:00,
2013-02-17 17:55:00,28.2,5.9,29.76,WSW,246,17.0,30.0,38,0.00,,,0.00,meteohub,2013-02-17 22:55:00,
2013-02-17 18:00:00,28.0,5.2,29.76,West,278,16.0,30.0,37,0.00,,,0.00,meteohub,2013-02-17 23:00:00,
2013-02-17 18:06:00,27.9,5.5,29.76,WNW,290,17.0,31.0,38,0.00,,,0.00,meteohub,2013-02-17 23:06:00,
2013-02-17 18:11:00,27.7,5.4,29.76,West,269,17.0,31.0,38,0.00,,,0.00,meteohub,2013-02-17 23:11:00,
2013-02-17 18:16:00,27.7,5.9,29.77,West,259,9.0,31.0,39,0.00,,,0.00,meteohub,2013-02-17 23:16:00,
2013-02-17 18:21:00,27.5,6.3,29.77,West,274,14.0,31.0,40,0.00,,,0.00,meteohub,2013-02-17 23:21:00,
2013-02-17 18:26:00,27.3,7.2,29.78,WSW,245,11.0,28.0,42,0.00,,,0.00,meteohub,2013-02-17 23:26:00,
2013-02-17 18:31:00,27.1,7.2,29.78,West,267,9.0,28.0,42,0.00,,,0.00,meteohub,2013-02-17 23:31:00,
2013-02-17 18:36:00,27.0,7.0,29.78,West,265,23.0,28.0,42,0.00,,,0.00,meteohub,2013-02-17 23:36:00,
2013-02-17 18:41:00,26.8,5.7,29.78,West,259,22.0,28.0,40,0.00,,,0.00,meteohub,2013-02-17 23:41:00,
2013-02-17 18:46:00,26.6,5.5,29.79,West,278,11.0,28.0,40,0.00,,,0.00,meteohub,2013-02-17 23:46:00,
2013-02-17 18:51:00,26.4,5.4,29.79,West,275,19.0,33.0,40,0.00,,,0.00,meteohub,2013-02-17 23:51:00,
2013-02-17 18:56:00,26.2,6.3,29.80,West,269,13.0,33.0,42,0.00,,,0.00,meteohub,2013-02-17 23:56:00,
2013-02-17 19:01:00,26.2,5.7,29.80,West,281,20.0,33.0,41,0.00,,,0.00,meteohub,2013-02-18 00:01:00,
2013-02-17 19:06:00,26.1,5.5,29.81,West,265,23.0,33.0,41,0.00,,,0.00,meteohub,2013-02-18 00:06:00,
2013-02-17 19:11:00,26.1,5.5,29.80,West,263,18.0,33.0,41,0.00,,,0.00,meteohub,2013-02-18 00:11:00,
2013-02-17 19:16:00,25.9,5.4,29.81,WSW,256,13.0,32.0,41,0.00,,,0.00,meteohub,2013-02-18 00:16:00,
2013-02-17 19:21:00,25.5,5.5,29.81,West,279,12.0,32.0,42,0.00,,,0.00,meteohub,2013-02-18 00:21:00,
2013-02-17 19:26:00,25.3,5.4,29.81,West,263,23.0,32.0,42,0.00,,,0.00,meteohub,2013-02-18 00:26:00,
2013-02-17 19:31:00,25.3,5.4,29.81,West,265,13.0,33.0,42,0.00,,,0.00,meteohub,2013-02-18 00:31:00,
2013-02-17 19:36:00,25.0,5.2,29.82,West,265,21.0,33.0,42,0.00,,,0.00,meteohub,2013-02-18 00:36:00,
2013-02-17 19:41:00,25.0,5.7,29.82,West,269,16.0,33.0,43,0.00,,,0.00,meteohub,2013-02-18 00:41:00,
2013-02-17 19:46:00,24.8,5.5,29.82,West,260,9.0,33.0,43,0.00,,,0.00,meteohub,2013-02-18 00:46:00,
2013-02-17 19:51:00,24.6,5.4,29.82,WSW,254,9.0,33.0,43,0.00,,,0.00,meteohub,2013-02-18 00:51:00,
2013-02-17 19:56:00,24.4,6.1,29.82,West,262,14.0,33.0,45,0.00,,,0.00,meteohub,2013-02-18 00:56:00,
2013-02-17 20:01:00,24.4,5.7,29.83,West,275,12.0,28.0,44,0.00,,,0.00,meteohub,2013-02-18 01:01:00,
2013-02-17 20:06:00,24.3,5.5,29.83,West,264,8.0,28.0,44,0.00,,,0.00,meteohub,2013-02-18 01:06:00,
2013-02-17 20:11:00,24.3,5.5,29.83,WSW,240,15.0,28.0,44,0.00,,,0.00,meteohub,2013-02-18 01:11:00,
2013-02-17 20:16:00,24.1,5.4,29.83,West,269,13.0,29.0,44,0.00,,,0.00,meteohub,2013-02-18 01:16:00,
2013-02-17 20:21:00,24.1,5.4,29.84,West,268,11.0,29.0,44,0.00,,,0.00,meteohub,2013-02-18 01:21:00,
2013-02-17 20:26:00,23.7,5.5,29.84,West,261,17.0,29.0,45,0.00,,,0.00,meteohub,2013-02-18 01:26:00,
2013-02-17 20:31:00,23.7,5.5,29.84,West,271,17.0,38.0,45,0.00,,,0.00,meteohub,2013-02-18 01:31:00,
2013-02-17 20:36:00,23.5,5.4,29.84,West,267,12.0,38.0,45,0.00,,,0.00,meteohub,2013-02-18 01:36:00,
2013-02-17 20:41:00,23.4,5.5,29.84,West,269,20.0,30.0,46,0.00,,,0.00,meteohub,2013-02-18 01:41:00,
2013-02-17 20:46:00,23.4,5.5,29.84,West,269,16.0,30.0,46,0.00,,,0.00,meteohub,2013-02-18 01:46:00,
2013-02-17 20:51:00,23.2,5.5,29.84,West,276,10.0,30.0,46,0.00,,,0.00,meteohub,2013-02-18 01:51:00,
2013-02-17 20:56:00,23.2,6.4,29.85,SW,229,10.0,30.0,48,0.00,,,0.00,meteohub,2013-02-18 01:56:00,
2013-02-17 21:01:00,22.8,6.1,29.85,SW,236,12.0,28.0,48,0.00,,,0.00,meteohub,2013-02-18 02:01:00,
2013-02-17 21:06:00,22.8,6.1,29.85,West,266,19.0,28.0,48,0.00,,,0.00,meteohub,2013-02-18 02:06:00,
2013-02-17 21:12:00,22.6,6.4,29.85,West,277,15.0,28.0,49,0.00,,,0.00,meteohub,2013-02-18 02:12:00,
2013-02-17 21:17:00,22.5,6.3,29.86,WSW,242,16.0,28.0,49,0.00,,,0.00,meteohub,2013-02-18 02:17:00,
2013-02-17 21:22:00,22.3,6.1,29.86,West,278,19.0,28.0,49,0.00,,,0.00,meteohub,2013-02-18 02:22:00,
2013-02-17 21:27:00,22.3,6.4,29.86,West,273,26.0,28.0,50,0.00,,,0.00,meteohub,2013-02-18 02:27:00,
2013-02-17 21:32:00,21.9,6.1,29.86,WSW,251,17.0,25.0,50,0.00,,,0.00,meteohub,2013-02-18 02:32:00,
2013-02-17 21:37:00,21.7,5.9,29.87,West,269,11.0,25.0,50,0.00,,,0.00,meteohub,2013-02-18 02:37:00,
2013-02-17 21:42:00,21.6,6.3,29.87,West,273,16.0,31.0,51,0.00,,,0.00,meteohub,2013-02-18 02:42:00,
2013-02-17 21:47:00,21.6,6.3,29.87,West,261,14.0,31.0,51,0.00,,,0.00,meteohub,2013-02-18 02:47:00,
2013-02-17 21:52:00,21.4,6.1,29.87,WSW,240,13.0,31.0,51,0.00,,,0.00,meteohub,2013-02-18 02:52:00,
2013-02-17 21:57:00,21.0,5.7,29.87,WSW,248,16.0,31.0,51,0.00,,,0.00,meteohub,2013-02-18 02:57:00,
2013-02-17 22:02:00,20.8,5.5,29.88,West,263,21.0,40.0,51,0.00,,,0.00,meteohub,2013-02-18 03:02:00,
2013-02-17 22:07:00,20.7,5.9,29.87,West,266,13.0,40.0,52,0.00,,,0.00,meteohub,2013-02-18 03:07:00,
2013-02-17 22:12:00,20.7,6.3,29.87,WSW,250,14.0,40.0,53,0.00,,,0.00,meteohub,2013-02-18 03:12:00,
2013-02-17 22:17:00,20.5,6.1,29.87,WSW,256,10.0,34.0,53,0.00,,,0.00,meteohub,2013-02-18 03:17:00,
2013-02-17 22:22:00,20.3,5.9,29.87,WSW,243,14.0,34.0,53,0.00,,,0.00,meteohub,2013-02-18 03:22:00,
2013-02-17 22:27:00,20.1,5.4,29.88,West,267,28.0,34.0,52,0.00,,,0.00,meteohub,2013-02-18 03:27:00,
2013-02-17 22:32:00,19.9,5.2,29.88,West,268,15.0,32.0,52,0.00,,,0.00,meteohub,2013-02-18 03:32:00,
2013-02-17 22:37:00,19.8,5.4,29.88,West,281,13.0,32.0,53,0.00,,,0.00,meteohub,2013-02-18 03:37:00,
2013-02-17 22:42:00,19.8,5.4,29.88,WSW,254,22.0,32.0,53,0.00,,,0.00,meteohub,2013-02-18 03:42:00,
2013-02-17 22:47:00,19.6,4.8,29.88,WNW,293,27.0,32.0,52,0.00,,,0.00,meteohub,2013-02-18 03:47:00,
2013-02-17 22:52:00,19.6,4.8,29.88,West,269,18.0,32.0,52,0.00,,,0.00,meteohub,2013-02-18 03:52:00,
2013-02-17 22:57:00,19.6,4.8,29.88,West,268,18.0,32.0,52,0.00,,,0.00,meteohub,2013-02-18 03:57:00,
2013-02-17 23:02:00,19.4,4.6,29.89,WSW,254,15.0,34.0,52,0.00,,,0.00,meteohub,2013-02-18 04:02:00,
2013-02-17 23:07:00,19.2,4.5,29.89,West,273,10.0,34.0,52,0.00,,,0.00,meteohub,2013-02-18 04:07:00,
2013-02-17 23:12:00,19.2,4.8,29.88,West,269,15.0,34.0,53,0.00,,,0.00,meteohub,2013-02-18 04:12:00,
2013-02-17 23:17:00,19.2,4.8,29.89,West,259,12.0,32.0,53,0.00,,,0.00,meteohub,2013-02-18 04:17:00,
2013-02-17 23:22:00,19.0,5.2,29.89,West,267,10.0,32.0,54,0.00,,,0.00,meteohub,2013-02-18 04:22:00,
2013-02-17 23:27:00,19.0,4.6,29.89,WSW,257,25.0,32.0,53,0.00,,,0.00,meteohub,2013-02-18 04:27:00,
2013-02-17 23:32:00,19.2,4.8,29.90,West,267,18.0,34.0,53,0.00,,,0.00,meteohub,2013-02-18 04:32:00,
2013-02-17 23:37:00,19.0,4.6,29.89,West,271,14.0,34.0,53,0.00,,,0.00,meteohub,2013-02-18 04:37:00,
2013-02-17 23:42:00,19.0,5.2,29.90,West,263,12.0,36.0,54,0.00,,,0.00,meteohub,2013-02-18 04:42:00,
2013-02-17 23:47:00,19.0,4.6,29.90,WSW,250,13.0,36.0,53,0.00,,,0.00,meteohub,2013-02-18 04:47:00,
2013-02-17 23:52:00,19.0,5.2,29.90,WSW,258,16.0,36.0,54,0.00,,,0.00,meteohub,2013-02-18 04:52:00,
2013-02-17 23:57:00,19.0,5.2,29.90,West,277,14.0,36.0,54,0.00,,,0.00,meteohub,2013-02-18 04:57:00,